KMOX/MOX METAR and TAF weather

Enter ICAO airport designator
Station Type Date Time Source
KMOX METAR 2022/05/24 11:35 UTC NOAA

KMOX 241135Z AUTO 09004KT 10SM 07/05 A3018 RMK AO2


Station Type Date Time Source
KMOX Decoded METAR 2022/05/24 11:35 UTC NOAA

Morris, Morris Municipal Airport, MN, United States (KMOX) 45-34N 095-58W
May 24, 2022 - 07:35 AM EDT / 2022.05.24 1135 UTC
Wind: from the E (090 degrees) at 5 MPH (4 KT):0
Visibility: 10 mile(s):0
Temperature: 44 F (7 C)
Dew Point: 41 F (5 C)
Relative Humidity: 87%
Pressure (altimeter): 30.18 in. Hg (1022 hPa)
ob: KMOX 241135Z AUTO 09004KT 10SM 07/05 A3018 RMK AO2
cycle: 11

Station Type Date Time Source
KMOX TAF UTC NOAA

Error!

Example: see airport list